sensor_id;sensor_type;location;lat;lon;timestamp;P1;durP1;ratioP1;P2;durP2;ratioP2
48647;SDS011;34437;-33.956;151.076;2022-10-16T00:00:55;2.45;;;1.13;;
48647;SDS011;34437;-33.956;151.076;2022-10-16T00:03:18;3.08;;;1.20;;
48647;SDS011;34437;-33.956;151.076;2022-10-16T00:05:41;2.92;;;1.00;;
48647;SDS011;34437;-33.956;151.076;2022-10-16T00:08:04;4.07;;;1.25;;
48647;SDS011;34437;-33.956;151.076;2022-10-16T00:10:27;2.63;;;1.47;;
48647;SDS011;34437;-33.956;151.076;2022-10-16T00:12:50;5.87;;;1.67;;
48647;SDS011;34437;-33.956;151.076;2022-10-16T00:15:13;10.95;;;1.38;;
48647;SDS011;34437;-33.956;151.076;2022-10-16T00:17:36;4.50;;;1.70;;
48647;SDS011;34437;-33.956;151.076;2022-10-16T00:19:59;6.53;;;1.52;;
48647;SDS011;34437;-33.956;151.076;2022-10-16T00:22:21;6.20;;;1.65;;
48647;SDS011;34437;-33.956;151.076;2022-10-16T00:24:44;3.65;;;1.77;;
48647;SDS011;34437;-33.956;151.076;2022-10-16T00:27:06;3.78;;;1.33;;
48647;SDS011;34437;-33.956;151.076;2022-10-16T00:29:29;3.40;;;1.98;;
48647;SDS011;34437;-33.956;151.076;2022-10-16T00:31:51;7.78;;;1.90;;
48647;SDS011;34437;-33.956;151.076;2022-10-16T00:34:14;4.22;;;1.50;;
48647;SDS011;34437;-33.956;151.076;2022-10-16T00:36:36;2.88;;;1.40;;
48647;SDS011;34437;-33.956;151.076;2022-10-16T00:38:59;3.45;;;1.25;;
48647;SDS011;34437;-33.956;151.076;2022-10-16T00:41:22;7.10;;;1.90;;
48647;SDS011;34437;-33.956;151.076;2022-10-16T00:43:50;4.22;;;1.60;;
48647;SDS011;34437;-33.956;151.076;2022-10-16T00:46:26;3.58;;;1.35;;
48647;SDS011;34437;-33.956;151.076;2022-10-16T00:48:57;4.93;;;1.48;;
48647;SDS011;34437;-33.956;151.076;2022-10-16T00:51:25;3.33;;;1.45;;
48647;SDS011;34437;-33.956;151.076;2022-10-16T00:53:54;4.47;;;1.60;;
48647;SDS011;34437;-33.956;151.076;2022-10-16T00:56:18;4.68;;;1.75;;
48647;SDS011;34437;-33.956;151.076;2022-10-16T00:58:40;4.57;;;1.67;;
48647;SDS011;34437;-33.956;151.076;2022-10-16T01:01:03;3.08;;;1.33;;
48647;SDS011;34437;-33.956;151.076;2022-10-16T01:03:30;3.35;;;1.20;;
48647;SDS011;34437;-33.956;151.076;2022-10-16T01:06:00;3.95;;;1.38;;
48647;SDS011;34437;-33.956;151.076;2022-10-16T01:13:48;2.97;;;1.33;;
48647;SDS011;34437;-33.956;151.076;2022-10-16T01:16:20;3.83;;;1.50;;
48647;SDS011;34437;-33.956;151.076;2022-10-16T01:19:06;3.83;;;1.38;;
48647;SDS011;34437;-33.956;151.076;2022-10-16T01:21:36;2.78;;;1.20;;
48647;SDS011;34437;-33.956;151.076;2022-10-16T01:30:02;2.30;;;1.20;;
48647;SDS011;34437;-33.956;151.076;2022-10-16T01:35:04;2.75;;;1.35;;
48647;SDS011;34437;-33.956;151.076;2022-10-16T01:37:35;2.70;;;1.50;;
48647;SDS011;34437;-33.956;151.076;2022-10-16T01:40:05;2.67;;;1.40;;
48647;SDS011;34437;-33.956;151.076;2022-10-16T01:42:34;3.95;;;1.55;;
48647;SDS011;34437;-33.956;151.076;2022-10-16T01:45:03;2.13;;;1.42;;
48647;SDS011;34437;-33.956;151.076;2022-10-16T01:47:28;4.72;;;1.65;;
48647;SDS011;34437;-33.956;151.076;2022-10-16T01:49:53;2.80;;;1.17;;
48647;SDS011;34437;-33.956;151.076;2022-10-16T01:52:18;3.40;;;1.23;;
48647;SDS011;34437;-33.956;151.076;2022-10-16T01:54:45;3.55;;;1.15;;
48647;SDS011;34437;-33.956;151.076;2022-10-16T01:57:11;2.78;;;1.35;;
48647;SDS011;34437;-33.956;151.076;2022-10-16T01:59:36;3.10;;;1.65;;
48647;SDS011;34437;-33.956;151.076;2022-10-16T02:02:06;3.10;;;1.30;;
48647;SDS011;34437;-33.956;151.076;2022-10-16T02:04:39;2.60;;;1.30;;
48647;SDS011;34437;-33.956;151.076;2022-10-16T02:07:06;2.53;;;1.30;;
48647;SDS011;34437;-33.956;151.076;2022-10-16T02:09:30;2.58;;;1.45;;
48647;SDS011;34437;-33.956;151.076;2022-10-16T02:11:55;2.75;;;1.33;;
48647;SDS011;34437;-33.956;151.076;2022-10-16T02:14:23;3.97;;;1.58;;
48647;SDS011;34437;-33.956;151.076;2022-10-16T02:16:46;3.60;;;1.50;;
48647;SDS011;34437;-33.956;151.076;2022-10-16T02:19:09;2.45;;;1.30;;
48647;SDS011;34437;-33.956;151.076;2022-10-16T02:21:43;2.83;;;1.02;;
48647;SDS011;34437;-33.956;151.076;2022-10-16T02:24:18;2.47;;;1.23;;
48647;SDS011;34437;-33.956;151.076;2022-10-16T02:29:42;4.00;;;1.27;;
48647;SDS011;34437;-33.956;151.076;2022-10-16T02:32:11;2.65;;;1.67;;
48647;SDS011;34437;-33.956;151.076;2022-10-16T02:34:37;3.05;;;1.30;;
48647;SDS011;34437;-33.956;151.076;2022-10-16T02:37:01;3.42;;;1.30;;
48647;SDS011;34437;-33.956;151.076;2022-10-16T02:39:24;2.58;;;1.30;;
48647;SDS011;34437;-33.956;151.076;2022-10-16T02:41:49;3.03;;;1.20;;
48647;SDS011;34437;-33.956;151.076;2022-10-16T02:44:11;2.80;;;1.30;;
48647;SDS011;34437;-33.956;151.076;2022-10-16T02:46:34;2.63;;;1.13;;
48647;SDS011;34437;-33.956;151.076;2022-10-16T02:48:56;2.97;;;1.20;;
48647;SDS011;34437;-33.956;151.076;2022-10-16T02:51:19;3.42;;;1.50;;
48647;SDS011;34437;-33.956;151.076;2022-10-16T02:53:41;1.83;;;1.00;;
48647;SDS011;34437;-33.956;151.076;2022-10-16T02:56:04;2.45;;;1.20;;
48647;SDS011;34437;-33.956;151.076;2022-10-16T02:58:27;1.88;;;1.23;;
48647;SDS011;34437;-33.956;151.076;2022-10-16T03:00:49;2.35;;;1.00;;
48647;SDS011;34437;-33.956;151.076;2022-10-16T03:03:12;3.53;;;1.13;;
48647;SDS011;34437;-33.956;151.076;2022-10-16T03:05:34;3.35;;;1.05;;
48647;SDS011;34437;-33.956;151.076;2022-10-16T03:07:57;2.80;;;1.30;;
48647;SDS011;34437;-33.956;151.076;2022-10-16T03:13:25;2.55;;;1.50;;
48647;SDS011;34437;-33.956;151.076;2022-10-16T03:15:48;1.90;;;1.10;;
48647;SDS011;34437;-33.956;151.076;2022-10-16T03:18:10;3.20;;;1.08;;
48647;SDS011;34437;-33.956;151.076;2022-10-16T03:20:33;3.63;;;1.08;;
48647;SDS011;34437;-33.956;151.076;2022-10-16T03:22:56;4.30;;;1.00;;
48647;SDS011;34437;-33.956;151.076;2022-10-16T03:25:19;2.47;;;1.25;;
48647;SDS011;34437;-33.956;151.076;2022-10-16T03:27:42;1.25;;;0.68;;
48647;SDS011;34437;-33.956;151.076;2022-10-16T03:30:05;1.75;;;1.00;;
48647;SDS011;34437;-33.956;151.076;2022-10-16T03:32:28;1.67;;;0.90;;
48647;SDS011;34437;-33.956;151.076;2022-10-16T03:34:53;2.33;;;0.90;;
48647;SDS011;34437;-33.956;151.076;2022-10-16T03:37:17;2.55;;;1.02;;
48647;SDS011;34437;-33.956;151.076;2022-10-16T03:39:40;2.83;;;1.15;;
48647;SDS011;34437;-33.956;151.076;2022-10-16T03:42:02;2.05;;;0.88;;
48647;SDS011;34437;-33.956;151.076;2022-10-16T03:44:25;2.63;;;1.27;;
48647;SDS011;34437;-33.956;151.076;2022-10-16T03:46:47;1.60;;;0.90;;
48647;SDS011;34437;-33.956;151.076;2022-10-16T03:49:10;1.60;;;0.90;;
48647;SDS011;34437;-33.956;151.076;2022-10-16T03:51:32;4.13;;;1.23;;
48647;SDS011;34437;-33.956;151.076;2022-10-16T03:53:55;2.47;;;1.00;;
48647;SDS011;34437;-33.956;151.076;2022-10-16T03:56:17;4.15;;;1.38;;
48647;SDS011;34437;-33.956;151.076;2022-10-16T03:58:40;2.50;;;1.05;;
48647;SDS011;34437;-33.956;151.076;2022-10-16T04:01:02;2.90;;;0.90;;
48647;SDS011;34437;-33.956;151.076;2022-10-16T04:03:25;2.67;;;1.20;;
48647;SDS011;34437;-33.956;151.076;2022-10-16T04:05:48;3.13;;;1.20;;
48647;SDS011;34437;-33.956;151.076;2022-10-16T04:08:11;3.30;;;1.33;;
48647;SDS011;34437;-33.956;151.076;2022-10-16T04:10:33;2.05;;;1.15;;
48647;SDS011;34437;-33.956;151.076;2022-10-16T04:12:56;1.77;;;0.73;;
48647;SDS011;34437;-33.956;151.076;2022-10-16T04:15:18;2.25;;;1.05;;
48647;SDS011;34437;-33.956;151.076;2022-10-16T04:17:41;3.80;;;1.23;;
48647;SDS011;34437;-33.956;151.076;2022-10-16T04:20:04;3.13;;;1.15;;
48647;SDS011;34437;-33.956;151.076;2022-10-16T04:22:27;1.80;;;1.05;;
48647;SDS011;34437;-33.956;151.076;2022-10-16T04:24:49;2.70;;;1.20;;
48647;SDS011;34437;-33.956;151.076;2022-10-16T04:27:12;4.65;;;1.48;;
48647;SDS011;34437;-33.956;151.076;2022-10-16T04:29:34;2.70;;;1.05;;
48647;SDS011;34437;-33.956;151.076;2022-10-16T04:31:57;4.05;;;1.45;;
48647;SDS011;34437;-33.956;151.076;2022-10-16T04:34:19;2.45;;;1.30;;
48647;SDS011;34437;-33.956;151.076;2022-10-16T04:36:42;1.95;;;1.13;;
48647;SDS011;34437;-33.956;151.076;2022-10-16T04:39:05;1.75;;;1.15;;
48647;SDS011;34437;-33.956;151.076;2022-10-16T04:41:27;2.17;;;1.20;;
48647;SDS011;34437;-33.956;151.076;2022-10-16T04:43:50;2.90;;;1.80;;
48647;SDS011;34437;-33.956;151.076;2022-10-16T04:46:12;3.67;;;1.70;;
48647;SDS011;34437;-33.956;151.076;2022-10-16T04:48:35;2.92;;;1.45;;
48647;SDS011;34437;-33.956;151.076;2022-10-16T04:50:57;2.10;;;1.50;;
48647;SDS011;34437;-33.956;151.076;2022-10-16T04:53:20;3.50;;;1.58;;
48647;SDS011;34437;-33.956;151.076;2022-10-16T04:55:44;2.95;;;2.00;;
48647;SDS011;34437;-33.956;151.076;2022-10-16T04:58:06;2.88;;;1.80;;
48647;SDS011;34437;-33.956;151.076;2022-10-16T05:00:29;3.28;;;2.10;;
48647;SDS011;34437;-33.956;151.076;2022-10-16T05:02:52;2.45;;;2.00;;
48647;SDS011;34437;-33.956;151.076;2022-10-16T05:05:14;2.45;;;1.80;;
48647;SDS011;34437;-33.956;151.076;2022-10-16T05:07:37;4.55;;;2.33;;
48647;SDS011;34437;-33.956;151.076;2022-10-16T05:09:59;4.70;;;2.38;;
48647;SDS011;34437;-33.956;151.076;2022-10-16T05:12:22;4.40;;;2.70;;
48647;SDS011;34437;-33.956;151.076;2022-10-16T05:14:45;4.82;;;2.67;;
48647;SDS011;34437;-33.956;151.076;2022-10-16T05:17:07;3.63;;;2.60;;
48647;SDS011;34437;-33.956;151.076;2022-10-16T05:19:30;2.88;;;2.55;;
48647;SDS011;34437;-33.956;151.076;2022-10-16T05:21:52;3.78;;;2.90;;
48647;SDS011;34437;-33.956;151.076;2022-10-16T05:24:15;4.05;;;2.60;;
48647;SDS011;34437;-33.956;151.076;2022-10-16T05:26:37;3.95;;;2.67;;
48647;SDS011;34437;-33.956;151.076;2022-10-16T05:29:00;3.90;;;2.90;;
48647;SDS011;34437;-33.956;151.076;2022-10-16T05:31:23;3.33;;;2.87;;
48647;SDS011;34437;-33.956;151.076;2022-10-16T05:33:45;4.50;;;3.10;;
48647;SDS011;34437;-33.956;151.076;2022-10-16T05:36:08;3.65;;;2.75;;
48647;SDS011;34437;-33.956;151.076;2022-10-16T05:38:31;5.35;;;2.85;;
48647;SDS011;34437;-33.956;151.076;2022-10-16T05:40:54;5.05;;;3.10;;
48647;SDS011;34437;-33.956;151.076;2022-10-16T05:43:17;3.40;;;3.00;;
48647;SDS011;34437;-33.956;151.076;2022-10-16T05:45:40;3.67;;;2.90;;
48647;SDS011;34437;-33.956;151.076;2022-10-16T05:48:03;4.07;;;2.65;;
48647;SDS011;34437;-33.956;151.076;2022-10-16T05:50:25;3.28;;;2.70;;
48647;SDS011;34437;-33.956;151.076;2022-10-16T05:52:48;4.07;;;3.17;;
48647;SDS011;34437;-33.956;151.076;2022-10-16T05:55:11;3.80;;;3.03;;
48647;SDS011;34437;-33.956;151.076;2022-10-16T05:57:33;5.07;;;2.67;;
48647;SDS011;34437;-33.956;151.076;2022-10-16T05:59:56;3.97;;;3.05;;
48647;SDS011;34437;-33.956;151.076;2022-10-16T06:02:18;3.75;;;2.90;;
48647;SDS011;34437;-33.956;151.076;2022-10-16T06:04:41;3.20;;;2.70;;
48647;SDS011;34437;-33.956;151.076;2022-10-16T06:07:05;4.75;;;2.80;;
48647;SDS011;34437;-33.956;151.076;2022-10-16T06:09:28;4.50;;;2.78;;
48647;SDS011;34437;-33.956;151.076;2022-10-16T06:11:50;5.65;;;2.65;;
48647;SDS011;34437;-33.956;151.076;2022-10-16T06:14:13;4.30;;;2.67;;
48647;SDS011;34437;-33.956;151.076;2022-10-16T06:16:36;3.45;;;2.30;;
48647;SDS011;34437;-33.956;151.076;2022-10-16T06:18:59;3.65;;;2.53;;
48647;SDS011;34437;-33.956;151.076;2022-10-16T06:21:23;3.92;;;2.70;;
48647;SDS011;34437;-33.956;151.076;2022-10-16T06:23:46;4.22;;;2.78;;
48647;SDS011;34437;-33.956;151.076;2022-10-16T06:26:10;3.03;;;2.03;;
48647;SDS011;34437;-33.956;151.076;2022-10-16T06:28:34;3.03;;;2.47;;
48647;SDS011;34437;-33.956;151.076;2022-10-16T06:31:00;3.58;;;2.38;;
48647;SDS011;34437;-33.956;151.076;2022-10-16T06:33:23;3.95;;;2.45;;
48647;SDS011;34437;-33.956;151.076;2022-10-16T06:35:46;3.50;;;2.25;;
48647;SDS011;34437;-33.956;151.076;2022-10-16T06:38:08;3.22;;;2.30;;
48647;SDS011;34437;-33.956;151.076;2022-10-16T06:40:31;3.72;;;2.30;;
48647;SDS011;34437;-33.956;151.076;2022-10-16T06:42:56;3.85;;;2.55;;
48647;SDS011;34437;-33.956;151.076;2022-10-16T06:45:19;3.20;;;2.40;;
48647;SDS011;34437;-33.956;151.076;2022-10-16T06:47:41;3.72;;;2.35;;
48647;SDS011;34437;-33.956;151.076;2022-10-16T06:50:04;3.50;;;2.33;;
48647;SDS011;34437;-33.956;151.076;2022-10-16T06:52:28;5.05;;;2.65;;
48647;SDS011;34437;-33.956;151.076;2022-10-16T06:54:50;3.80;;;2.47;;
48647;SDS011;34437;-33.956;151.076;2022-10-16T06:57:13;3.10;;;2.33;;
48647;SDS011;34437;-33.956;151.076;2022-10-16T06:59:35;3.95;;;2.30;;
48647;SDS011;34437;-33.956;151.076;2022-10-16T07:01:58;3.72;;;2.63;;
48647;SDS011;34437;-33.956;151.076;2022-10-16T07:04:20;4.78;;;2.53;;
48647;SDS011;34437;-33.956;151.076;2022-10-16T07:06:43;3.90;;;2.28;;
48647;SDS011;34437;-33.956;151.076;2022-10-16T07:09:06;3.35;;;2.33;;
48647;SDS011;34437;-33.956;151.076;2022-10-16T07:11:32;3.70;;;2.40;;
48647;SDS011;34437;-33.956;151.076;2022-10-16T07:13:55;3.97;;;2.10;;
48647;SDS011;34437;-33.956;151.076;2022-10-16T07:16:19;3.42;;;2.00;;
48647;SDS011;34437;-33.956;151.076;2022-10-16T07:18:43;3.00;;;1.95;;
48647;SDS011;34437;-33.956;151.076;2022-10-16T07:21:08;2.88;;;2.00;;
48647;SDS011;34437;-33.956;151.076;2022-10-16T07:23:33;3.08;;;2.33;;
48647;SDS011;34437;-33.956;151.076;2022-10-16T07:25:55;2.75;;;1.92;;
48647;SDS011;34437;-33.956;151.076;2022-10-16T07:28:18;3.00;;;2.05;;
48647;SDS011;34437;-33.956;151.076;2022-10-16T07:30:40;3.33;;;2.00;;
48647;SDS011;34437;-33.956;151.076;2022-10-16T07:33:03;2.88;;;2.00;;
48647;SDS011;34437;-33.956;151.076;2022-10-16T07:35:25;3.92;;;2.05;;
48647;SDS011;34437;-33.956;151.076;2022-10-16T07:37:48;4.18;;;2.00;;
48647;SDS011;34437;-33.956;151.076;2022-10-16T07:40:10;3.83;;;2.05;;
48647;SDS011;34437;-33.956;151.076;2022-10-16T07:42:33;2.25;;;1.70;;
48647;SDS011;34437;-33.956;151.076;2022-10-16T07:44:56;3.88;;;1.70;;
48647;SDS011;34437;-33.956;151.076;2022-10-16T07:47:18;3.47;;;1.83;;
48647;SDS011;34437;-33.956;151.076;2022-10-16T07:49:41;3.78;;;1.98;;
48647;SDS011;34437;-33.956;151.076;2022-10-16T07:52:04;3.42;;;1.70;;
48647;SDS011;34437;-33.956;151.076;2022-10-16T07:54:26;5.03;;;1.98;;
48647;SDS011;34437;-33.956;151.076;2022-10-16T07:56:49;2.95;;;1.67;;
48647;SDS011;34437;-33.956;151.076;2022-10-16T07:59:11;1.83;;;1.33;;
48647;SDS011;34437;-33.956;151.076;2022-10-16T08:01:34;3.50;;;1.70;;
48647;SDS011;34437;-33.956;151.076;2022-10-16T08:03:56;3.60;;;1.90;;
48647;SDS011;34437;-33.956;151.076;2022-10-16T08:06:20;5.47;;;2.15;;
48647;SDS011;34437;-33.956;151.076;2022-10-16T08:08:43;3.05;;;1.88;;
48647;SDS011;34437;-33.956;151.076;2022-10-16T08:11:06;3.50;;;1.95;;
48647;SDS011;34437;-33.956;151.076;2022-10-16T08:13:29;3.83;;;1.60;;
48647;SDS011;34437;-33.956;151.076;2022-10-16T08:15:53;3.28;;;1.58;;
48647;SDS011;34437;-33.956;151.076;2022-10-16T08:18:16;2.90;;;1.50;;
48647;SDS011;34437;-33.956;151.076;2022-10-16T08:20:38;3.53;;;1.60;;
48647;SDS011;34437;-33.956;151.076;2022-10-16T08:23:02;3.72;;;1.60;;
48647;SDS011;34437;-33.956;151.076;2022-10-16T08:25:25;2.93;;;1.33;;
48647;SDS011;34437;-33.956;151.076;2022-10-16T08:27:47;2.63;;;1.35;;
48647;SDS011;34437;-33.956;151.076;2022-10-16T08:30:10;3.17;;;1.55;;
48647;SDS011;34437;-33.956;151.076;2022-10-16T08:32:33;2.90;;;1.65;;
48647;SDS011;34437;-33.956;151.076;2022-10-16T08:34:56;3.38;;;1.83;;
48647;SDS011;34437;-33.956;151.076;2022-10-16T08:37:18;4.28;;;1.85;;
48647;SDS011;34437;-33.956;151.076;2022-10-16T08:39:41;5.20;;;1.60;;
48647;SDS011;34437;-33.956;151.076;2022-10-16T08:49:59;4.45;;;1.10;;
48647;SDS011;34437;-33.956;151.076;2022-10-16T08:52:29;2.05;;;1.30;;
48647;SDS011;34437;-33.956;151.076;2022-10-16T08:54:56;3.08;;;1.60;;
48647;SDS011;34437;-33.956;151.076;2022-10-16T08:57:20;2.72;;;1.60;;
48647;SDS011;34437;-33.956;151.076;2022-10-16T08:59:43;2.53;;;1.30;;
48647;SDS011;34437;-33.956;151.076;2022-10-16T09:02:19;3.63;;;1.52;;
48647;SDS011;34437;-33.956;151.076;2022-10-16T09:13:21;3.00;;;1.25;;
48647;SDS011;34437;-33.956;151.076;2022-10-16T09:15:59;2.88;;;1.30;;
48647;SDS011;34437;-33.956;151.076;2022-10-16T09:23:59;2.83;;;1.20;;
48647;SDS011;34437;-33.956;151.076;2022-10-16T09:26:42;2.65;;;1.30;;
48647;SDS011;34437;-33.956;151.076;2022-10-16T09:29:05;2.72;;;1.25;;
48647;SDS011;34437;-33.956;151.076;2022-10-16T09:31:30;1.92;;;1.00;;
48647;SDS011;34437;-33.956;151.076;2022-10-16T09:33:58;1.50;;;0.83;;
48647;SDS011;34437;-33.956;151.076;2022-10-16T09:36:25;1.73;;;1.00;;
48647;SDS011;34437;-33.956;151.076;2022-10-16T09:38:49;2.95;;;1.38;;
48647;SDS011;34437;-33.956;151.076;2022-10-16T09:41:22;3.05;;;1.50;;
48647;SDS011;34437;-33.956;151.076;2022-10-16T09:46:19;2.35;;;1.02;;
48647;SDS011;34437;-33.956;151.076;2022-10-16T09:48:49;2.30;;;1.40;;
48647;SDS011;34437;-33.956;151.076;2022-10-16T09:51:33;2.03;;;0.88;;
48647;SDS011;34437;-33.956;151.076;2022-10-16T09:54:39;3.67;;;1.20;;
48647;SDS011;34437;-33.956;151.076;2022-10-16T09:56:42;1.63;;;1.00;;
48647;SDS011;34437;-33.956;151.076;2022-10-16T09:59:13;2.08;;;0.77;;
48647;SDS011;34437;-33.956;151.076;2022-10-16T10:01:37;1.77;;;0.90;;
48647;SDS011;34437;-33.956;151.076;2022-10-16T10:04:02;1.58;;;0.90;;
48647;SDS011;34437;-33.956;151.076;2022-10-16T10:06:27;2.78;;;1.17;;
48647;SDS011;34437;-33.956;151.076;2022-10-16T10:08:53;1.60;;;0.88;;
48647;SDS011;34437;-33.956;151.076;2022-10-16T10:11:17;1.85;;;1.13;;
48647;SDS011;34437;-33.956;151.076;2022-10-16T10:13:39;2.53;;;1.25;;
48647;SDS011;34437;-33.956;151.076;2022-10-16T10:16:02;2.35;;;1.20;;
48647;SDS011;34437;-33.956;151.076;2022-10-16T10:18:24;2.97;;;1.30;;
48647;SDS011;34437;-33.956;151.076;2022-10-16T10:20:56;1.52;;;1.20;;
48647;SDS011;34437;-33.956;151.076;2022-10-16T10:23:21;1.48;;;0.80;;
48647;SDS011;34437;-33.956;151.076;2022-10-16T10:26:03;2.28;;;1.20;;
48647;SDS011;34437;-33.956;151.076;2022-10-16T10:32:01;2.92;;;1.13;;
48647;SDS011;34437;-33.956;151.076;2022-10-16T10:34:23;2.65;;;1.08;;
48647;SDS011;34437;-33.956;151.076;2022-10-16T10:36:55;3.20;;;1.17;;
48647;SDS011;34437;-33.956;151.076;2022-10-16T10:39:39;2.35;;;1.35;;
48647;SDS011;34437;-33.956;151.076;2022-10-16T10:59:32;1.42;;;0.95;;
48647;SDS011;34437;-33.956;151.076;2022-10-16T11:07:21;2.10;;;1.17;;
48647;SDS011;34437;-33.956;151.076;2022-10-16T11:09:54;2.83;;;1.10;;
48647;SDS011;34437;-33.956;151.076;2022-10-16T11:12:27;2.60;;;1.40;;
48647;SDS011;34437;-33.956;151.076;2022-10-16T11:17:53;4.35;;;1.25;;
48647;SDS011;34437;-33.956;151.076;2022-10-16T11:20:43;2.38;;;1.08;;
48647;SDS011;34437;-33.956;151.076;2022-10-16T11:25:39;4.93;;;1.40;;
48647;SDS011;34437;-33.956;151.076;2022-10-16T11:28:09;3.30;;;1.15;;
48647;SDS011;34437;-33.956;151.076;2022-10-16T11:30:39;3.70;;;1.20;;
48647;SDS011;34437;-33.956;151.076;2022-10-16T11:35:59;2.97;;;1.30;;
48647;SDS011;34437;-33.956;151.076;2022-10-16T11:40:54;3.25;;;1.30;;
48647;SDS011;34437;-33.956;151.076;2022-10-16T11:43:22;4.55;;;1.35;;
48647;SDS011;34437;-33.956;151.076;2022-10-16T11:46:00;2.53;;;1.10;;
48647;SDS011;34437;-33.956;151.076;2022-10-16T11:50:58;3.78;;;1.77;;
48647;SDS011;34437;-33.956;151.076;2022-10-16T11:54:05;3.55;;;1.40;;
48647;SDS011;34437;-33.956;151.076;2022-10-16T11:56:52;3.80;;;1.27;;
48647;SDS011;34437;-33.956;151.076;2022-10-16T11:59:24;2.40;;;1.33;;
48647;SDS011;34437;-33.956;151.076;2022-10-16T12:04:49;4.57;;;1.45;;
48647;SDS011;34437;-33.956;151.076;2022-10-16T12:07:23;3.37;;;1.60;;
48647;SDS011;34437;-33.956;151.076;2022-10-16T12:09:53;4.35;;;1.60;;
48647;SDS011;34437;-33.956;151.076;2022-10-16T12:12:28;15.77;;;1.92;;
48647;SDS011;34437;-33.956;151.076;2022-10-16T12:15:01;7.63;;;1.65;;
48647;SDS011;34437;-33.956;151.076;2022-10-16T12:17:40;6.57;;;1.55;;
48647;SDS011;34437;-33.956;151.076;2022-10-16T12:22:34;5.35;;;1.55;;
48647;SDS011;34437;-33.956;151.076;2022-10-16T12:24:57;6.70;;;1.60;;
48647;SDS011;34437;-33.956;151.076;2022-10-16T12:27:24;4.43;;;1.38;;
48647;SDS011;34437;-33.956;151.076;2022-10-16T12:29:55;5.95;;;1.95;;
48647;SDS011;34437;-33.956;151.076;2022-10-16T12:32:36;7.00;;;1.63;;
48647;SDS011;34437;-33.956;151.076;2022-10-16T12:35:01;4.13;;;1.52;;
48647;SDS011;34437;-33.956;151.076;2022-10-16T12:37:27;2.90;;;1.23;;
48647;SDS011;34437;-33.956;151.076;2022-10-16T12:39:55;3.90;;;1.60;;
48647;SDS011;34437;-33.956;151.076;2022-10-16T12:44:54;2.65;;;1.38;;
48647;SDS011;34437;-33.956;151.076;2022-10-16T12:47:24;6.80;;;1.42;;
48647;SDS011;34437;-33.956;151.076;2022-10-16T12:49:59;5.40;;;1.45;;
48647;SDS011;34437;-33.956;151.076;2022-10-16T12:52:31;4.75;;;1.75;;
48647;SDS011;34437;-33.956;151.076;2022-10-16T12:54:58;2.75;;;1.23;;
48647;SDS011;34437;-33.956;151.076;2022-10-16T13:13:51;13.00;;;2.10;;
48647;SDS011;34437;-33.956;151.076;2022-10-16T13:16:46;10.35;;;2.60;;
48647;SDS011;34437;-33.956;151.076;2022-10-16T13:21:49;6.10;;;1.40;;
48647;SDS011;34437;-33.956;151.076;2022-10-16T13:24:19;10.15;;;1.98;;
48647;SDS011;34437;-33.956;151.076;2022-10-16T13:27:23;7.60;;;1.90;;
48647;SDS011;34437;-33.956;151.076;2022-10-16T13:30:07;4.22;;;1.73;;
48647;SDS011;34437;-33.956;151.076;2022-10-16T13:32:34;5.97;;;1.70;;
48647;SDS011;34437;-33.956;151.076;2022-10-16T13:34:57;13.52;;;2.15;;
48647;SDS011;34437;-33.956;151.076;2022-10-16T13:37:23;4.28;;;1.45;;
48647;SDS011;34437;-33.956;151.076;2022-10-16T13:39:46;6.22;;;1.90;;
48647;SDS011;34437;-33.956;151.076;2022-10-16T13:42:12;10.05;;;1.85;;
48647;SDS011;34437;-33.956;151.076;2022-10-16T13:44:41;3.15;;;1.67;;
48647;SDS011;34437;-33.956;151.076;2022-10-16T13:47:10;6.50;;;1.88;;
48647;SDS011;34437;-33.956;151.076;2022-10-16T13:49:41;11.45;;;2.08;;
48647;SDS011;34437;-33.956;151.076;2022-10-16T13:52:03;7.20;;;1.40;;
48647;SDS011;34437;-33.956;151.076;2022-10-16T13:54:26;24.38;;;2.03;;
48647;SDS011;34437;-33.956;151.076;2022-10-16T13:56:52;4.10;;;1.67;;
48647;SDS011;34437;-33.956;151.076;2022-10-16T13:59:47;7.00;;;2.03;;
48647;SDS011;34437;-33.956;151.076;2022-10-16T14:02:49;4.03;;;1.50;;
48647;SDS011;34437;-33.956;151.076;2022-10-16T14:04:49;2.88;;;1.52;;
48647;SDS011;34437;-33.956;151.076;2022-10-16T14:07:20;4.15;;;1.60;;
48647;SDS011;34437;-33.956;151.076;2022-10-16T14:09:52;7.68;;;1.35;;
48647;SDS011;34437;-33.956;151.076;2022-10-16T14:12:16;6.47;;;1.88;;
48647;SDS011;34437;-33.956;151.076;2022-10-16T14:14:43;4.15;;;1.55;;
48647;SDS011;34437;-33.956;151.076;2022-10-16T14:17:13;3.78;;;1.30;;
48647;SDS011;34437;-33.956;151.076;2022-10-16T14:19:47;4.35;;;1.63;;
48647;SDS011;34437;-33.956;151.076;2022-10-16T14:22:19;3.38;;;1.38;;
48647;SDS011;34437;-33.956;151.076;2022-10-16T14:24:47;4.97;;;1.58;;
48647;SDS011;34437;-33.956;151.076;2022-10-16T14:30:15;11.43;;;2.22;;
48647;SDS011;34437;-33.956;151.076;2022-10-16T14:32:35;4.65;;;1.73;;
48647;SDS011;34437;-33.956;151.076;2022-10-16T14:34:58;6.45;;;1.77;;
48647;SDS011;34437;-33.956;151.076;2022-10-16T14:37:27;2.75;;;1.40;;
48647;SDS011;34437;-33.956;151.076;2022-10-16T14:39:51;5.93;;;1.52;;
48647;SDS011;34437;-33.956;151.076;2022-10-16T14:42:14;6.15;;;1.60;;
48647;SDS011;34437;-33.956;151.076;2022-10-16T14:44:40;6.97;;;1.80;;
48647;SDS011;34437;-33.956;151.076;2022-10-16T14:47:09;5.60;;;1.52;;
48647;SDS011;34437;-33.956;151.076;2022-10-16T14:49:35;5.15;;;1.90;;
48647;SDS011;34437;-33.956;151.076;2022-10-16T14:51:58;6.43;;;1.70;;
48647;SDS011;34437;-33.956;151.076;2022-10-16T14:54:20;5.13;;;1.60;;
48647;SDS011;34437;-33.956;151.076;2022-10-16T14:59:18;3.92;;;1.73;;
48647;SDS011;34437;-33.956;151.076;2022-10-16T15:02:00;4.88;;;1.60;;
48647;SDS011;34437;-33.956;151.076;2022-10-16T15:04:43;4.97;;;1.60;;
48647;SDS011;34437;-33.956;151.076;2022-10-16T15:07:06;11.50;;;1.80;;
48647;SDS011;34437;-33.956;151.076;2022-10-16T15:09:29;3.28;;;1.23;;
48647;SDS011;34437;-33.956;151.076;2022-10-16T15:11:51;6.30;;;1.73;;
48647;SDS011;34437;-33.956;151.076;2022-10-16T15:14:14;7.32;;;1.50;;
48647;SDS011;34437;-33.956;151.076;2022-10-16T15:16:36;10.38;;;1.75;;
48647;SDS011;34437;-33.956;151.076;2022-10-16T15:18:59;3.67;;;1.52;;
48647;SDS011;34437;-33.956;151.076;2022-10-16T15:21:29;4.82;;;1.80;;
48647;SDS011;34437;-33.956;151.076;2022-10-16T15:23:53;7.45;;;1.85;;
48647;SDS011;34437;-33.956;151.076;2022-10-16T15:26:17;5.63;;;1.67;;
48647;SDS011;34437;-33.956;151.076;2022-10-16T15:28:39;4.00;;;1.50;;
48647;SDS011;34437;-33.956;151.076;2022-10-16T15:31:02;4.07;;;1.45;;
48647;SDS011;34437;-33.956;151.076;2022-10-16T15:33:27;2.95;;;1.55;;
48647;SDS011;34437;-33.956;151.076;2022-10-16T15:35:54;6.53;;;1.50;;
48647;SDS011;34437;-33.956;151.076;2022-10-16T15:38:17;7.40;;;1.80;;
48647;SDS011;34437;-33.956;151.076;2022-10-16T15:40:41;3.15;;;1.38;;
48647;SDS011;34437;-33.956;151.076;2022-10-16T15:43:04;4.70;;;1.73;;
48647;SDS011;34437;-33.956;151.076;2022-10-16T15:45:26;6.22;;;1.70;;
48647;SDS011;34437;-33.956;151.076;2022-10-16T15:47:49;6.18;;;1.70;;
48647;SDS011;34437;-33.956;151.076;2022-10-16T15:50:12;4.47;;;1.52;;
48647;SDS011;34437;-33.956;151.076;2022-10-16T15:52:35;3.58;;;1.33;;
48647;SDS011;34437;-33.956;151.076;2022-10-16T15:57:21;5.00;;;1.35;;
48647;SDS011;34437;-33.956;151.076;2022-10-16T15:59:44;4.13;;;1.35;;